Terminal Aerodrome Forecast
Issued by NWS Billings, MT

Home | Current Version | Previous Version | Text Only | Print | Product List | Glossary On
Versions: 1 2 3 4 5 6 7 8 9 10 11 12 13 14 15 16 17 18 19 20 21 22 23 24 25 26 27 28 29 30 31 32 33
000
FTUS45 KBYZ 282320
TAFBIL
TAF
KBIL 282320Z 2900/2924 01015KT 3/4SM -SN BR FEW005 BKN010 OVC015
      TEMPO 2900/2903 2SM -SN BR BKN020
     FM290300 03014G23KT 1SM -SN BLSN BKN005 OVC015
     FM290900 02012KT 3SM -SN BR SCT005 OVC020
     FM291500 03009KT P6SM -SN OVC040
     FM291800 02010KT P6SM OVC060=

USA.gov is the U.S. government's official web portal to all federal, state and local government web resources and services.